Time;durP1;ratioP1;P1;durP2;ratioP2;P2;SDS_P1;SDS_P2;PMS_P1;PMS_P2;Temp;Humidity;BMP_temperature;BMP_pressure;BME280_temperature;BME280_humidity;BME280_pressure;Samples;Min_cycle;Max_cycle;Signal;HPM_P1;HPM_P2
2023/02/15 00:00:10;;;;;;;20.48;9.60;;;0.30;99.90;;;;;;5078943;28;25132;-76
2023/02/15 00:02:39;;;;;;;17.25;8.45;;;0.30;99.90;;;;;;5096913;28;25116;-76
2023/02/15 00:05:07;;;;;;;20.40;9.93;;;0.20;99.90;;;;;;5097023;28;25056;-76
2023/02/15 00:07:35;;;;;;;22.48;9.95;;;0.20;99.90;;;;;;5096830;28;25062;-76
2023/02/15 00:10:02;;;;;;;16.48;8.13;;;0.20;99.90;;;;;;5097134;28;25118;-75
2023/02/15 00:12:30;;;;;;;20.98;10.73;;;0.10;99.90;;;;;;5096795;28;25107;-76
2023/02/15 00:14:57;;;;;;;28.55;11.93;;;0.10;99.90;;;;;;5097238;28;25134;-76
2023/02/15 00:17:27;;;;;;;23.88;10.77;;;0.00;99.90;;;;;;5097109;28;25096;-76
2023/02/15 00:19:54;;;;;;;23.00;9.75;;;0.00;99.90;;;;;;5078722;28;25099;-76
2023/02/15 00:22:21;;;;;;;26.25;10.68;;;0.00;99.90;;;;;;5096598;28;25150;-76
2023/02/15 00:24:49;;;;;;;22.42;9.68;;;-0.10;99.90;;;;;;5096790;28;25132;-76
2023/02/15 00:27:17;;;;;;;24.58;10.02;;;-0.20;99.90;;;;;;5096868;28;25074;-76
2023/02/15 00:29:44;;;;;;;22.00;9.50;;;-0.20;99.90;;;;;;5078607;28;25078;-76
2023/02/15 00:32:12;;;;;;;22.00;10.43;;;-0.20;99.90;;;;;;5096764;28;25067;-76
2023/02/15 00:34:39;;;;;;;23.85;9.95;;;-0.30;99.90;;;;;;5096612;28;25054;-76
2023/02/15 00:37:06;;;;;;;25.27;9.80;;;-0.30;99.90;;;;;;5078531;28;25054;-76
2023/02/15 00:39:34;;;;;;;22.75;10.07;;;-0.30;99.90;;;;;;5096651;28;25082;-76
2023/02/15 00:42:01;;;;;;;25.55;9.43;;;-0.30;99.90;;;;;;5078504;28;25054;-76
2023/02/15 00:44:28;;;;;;;21.30;9.35;;;-0.30;99.90;;;;;;5082975;28;25134;-76
2023/02/15 00:46:58;;;;;;;25.10;9.23;;;-0.40;99.90;;;;;;5085242;28;25134;-76
2023/02/15 00:49:26;;;;;;;26.73;9.60;;;-0.30;99.90;;;;;;5085312;28;25070;-76
2023/02/15 00:51:53;;;;;;;25.00;9.45;;;-0.40;99.90;;;;;;5085120;28;25076;-75
2023/02/15 00:54:20;;;;;;;23.67;10.40;;;-0.40;99.90;;;;;;5103332;28;25120;-76
2023/02/15 00:56:48;;;;;;;25.00;11.48;;;-0.40;99.90;;;;;;5103039;28;25055;-76
2023/02/15 00:59:15;;;;;;;27.80;11.02;;;-0.40;99.90;;;;;;5085154;28;25094;-76
2023/02/15 01:01:43;;;;;;;30.23;11.38;;;-0.40;99.90;;;;;;5103010;28;25086;-76
2023/02/15 01:04:10;;;;;;;24.65;10.60;;;-0.40;99.90;;;;;;5103557;28;25080;-76
2023/02/15 01:06:38;;;;;;;29.92;12.10;;;-0.40;99.90;;;;;;5103205;28;25063;-76
2023/02/15 01:09:05;;;;;;;32.42;11.43;;;-0.40;99.90;;;;;;5103362;28;25104;-76
2023/02/15 01:11:32;;;;;;;24.80;10.90;;;-0.40;99.90;;;;;;5103188;28;25119;-76
2023/02/15 01:14:00;;;;;;;26.58;11.15;;;-0.40;99.90;;;;;;5103208;28;25067;-75
2023/02/15 01:16:28;;;;;;;30.50;10.82;;;-0.40;99.90;;;;;;5102857;28;25113;-76
2023/02/15 01:18:56;;;;;;;28.08;11.35;;;-0.40;99.90;;;;;;5084793;28;25075;-76
2023/02/15 01:21:25;;;;;;;24.90;10.98;;;-0.40;99.90;;;;;;5084903;28;25085;-76
2023/02/15 01:23:52;;;;;;;27.15;11.23;;;-0.30;99.90;;;;;;5103080;28;25126;-76
2023/02/15 01:26:20;;;;;;;25.13;10.75;;;-0.30;99.90;;;;;;5102771;28;25071;-76
2023/02/15 01:28:47;;;;;;;26.08;10.18;;;-0.30;99.90;;;;;;5102766;28;25127;-76
2023/02/15 01:31:18;;;;;;;27.00;10.07;;;-0.40;99.90;;;;;;5084888;28;25065;-76
2023/02/15 01:33:46;;;;;;;29.40;11.60;;;-0.50;99.90;;;;;;5102427;28;25077;-76
2023/02/15 01:36:14;;;;;;;30.25;10.80;;;-0.50;99.90;;;;;;5102698;28;25073;-76
2023/02/15 01:38:41;;;;;;;27.50;11.18;;;-0.50;99.90;;;;;;5102632;28;25073;-76
2023/02/15 01:41:25;;;;;;;26.95;10.98;;;-0.50;99.90;;;;;;5103262;28;25054;-75
2023/02/15 01:44:00;;;;;;;27.52;11.68;;;-0.50;99.90;;;;;;5102640;28;25113;-76
2023/02/15 01:46:33;;;;;;;28.85;11.45;;;-0.50;99.90;;;;;;5102602;28;25085;-76
2023/02/15 01:49:16;;;;;;;31.52;11.02;;;-0.60;99.90;;;;;;5102740;28;25079;-75
2023/02/15 01:51:46;;;;;;;26.70;10.77;;;-0.60;99.90;;;;;;5084592;28;25055;-76
2023/02/15 01:54:26;;;;;;;25.77;11.13;;;-0.60;99.90;;;;;;5084595;28;25115;-76
2023/02/15 01:56:57;;;;;;;26.48;10.63;;;-0.60;99.90;;;;;;5098734;28;25101;-75
2023/02/15 01:59:24;;;;;;;32.95;11.65;;;-0.60;99.90;;;;;;5099361;28;25110;-76
2023/02/15 02:01:59;;;;;;;29.20;11.90;;;-0.60;99.90;;;;;;5099785;28;25112;-76
2023/02/15 02:04:50;;;;;;;39.05;14.10;;;-0.50;99.90;;;;;;5099239;28;25423;-76
2023/02/15 02:07:22;;;;;;;28.55;12.02;;;-0.60;99.90;;;;;;5081149;28;25076;-76
2023/02/15 02:09:50;;;;;;;29.83;11.75;;;-0.60;99.90;;;;;;5081282;28;25067;-76
2023/02/15 02:12:19;;;;;;;27.17;12.35;;;-0.70;99.90;;;;;;5081022;28;25078;-75
2023/02/15 02:14:48;;;;;;;29.63;12.27;;;-0.70;99.90;;;;;;5081025;28;25058;-76
2023/02/15 02:17:53;;;;;;;28.40;11.02;;;-0.70;99.90;;;;;;5098966;28;25062;-75
2023/02/15 02:21:03;;;;;;;26.42;11.27;;;-0.70;99.90;;;;;;5099248;28;25081;-76
2023/02/15 02:23:38;;;;;;;28.10;11.65;;;-0.80;99.90;;;;;;5090862;28;25068;-76
2023/02/15 02:26:30;;;;;;;29.63;10.95;;;-0.80;99.90;;;;;;5099050;28;25061;-76
2023/02/15 02:29:18;;;;;;;25.75;11.13;;;-0.80;99.90;;;;;;5080740;28;25137;-76
2023/02/15 02:32:16;;;;;;;28.48;11.15;;;-0.80;99.90;;;;;;5079823;28;25057;-75
2023/02/15 02:35:37;;;;;;;28.75;11.15;;;-0.80;99.90;;;;;;5069138;28;25086;-76
2023/02/15 02:38:28;;;;;;;38.92;11.95;;;-0.90;99.90;;;;;;5076361;28;25084;-75
2023/02/15 02:41:26;;;;;;;34.22;11.98;;;-0.90;99.90;;;;;;5077225;28;25068;-75
2023/02/15 02:44:14;;;;;;;35.40;12.35;;;-0.80;99.90;;;;;;5077132;28;25116;-76
2023/02/15 02:46:53;;;;;;;32.20;12.23;;;-0.80;99.90;;;;;;5078405;28;25105;-75
2023/02/15 02:49:42;;;;;;;32.35;13.23;;;-0.80;99.90;;;;;;5078244;28;25074;-76
2023/02/15 02:52:44;;;;;;;26.67;12.43;;;-0.80;99.90;;;;;;5078041;28;25084;-76
2023/02/15 02:55:25;;;;;;;38.15;12.35;;;-0.80;99.90;;;;;;5075689;28;25115;-75
2023/02/15 02:58:08;;;;;;;31.65;12.23;;;-0.90;99.90;;;;;;5076836;28;25092;-76
2023/02/15 03:01:05;;;;;;;33.25;13.98;;;-0.90;99.90;;;;;;5076712;28;25149;-76
2023/02/15 03:03:50;;;;;;;35.08;12.77;;;-0.90;99.90;;;;;;5076951;28;25074;-75
2023/02/15 03:06:31;;;;;;;29.83;12.65;;;-1.00;99.90;;;;;;5076918;28;25416;-75
2023/02/15 03:09:18;;;;;;;29.75;11.50;;;-1.00;99.90;;;;;;5077685;28;25074;-76
2023/02/15 03:11:47;;;;;;;25.10;11.15;;;-1.10;99.90;;;;;;5077642;28;25057;-76
2023/02/15 03:14:16;;;;;;;31.77;12.50;;;-1.20;99.90;;;;;;5076649;28;25065;-76
2023/02/15 03:16:47;;;;;;;30.73;14.43;;;-1.10;99.90;;;;;;5077799;28;25060;-75
2023/02/15 03:19:22;;;;;;;34.17;14.85;;;-1.20;99.90;;;;;;5076317;28;25063;-76
2023/02/15 03:22:19;;;;;;;33.55;13.18;;;-1.20;99.90;;;;;;5077710;28;25121;-75
2023/02/15 03:25:03;;;;;;;33.47;14.10;;;-1.20;99.90;;;;;;5075908;28;25061;-76
2023/02/15 03:27:44;;;;;;;34.75;13.45;;;-1.10;99.90;;;;;;5076254;28;25052;-76
2023/02/15 03:30:13;;;;;;;41.30;15.35;;;-1.00;99.90;;;;;;5076218;28;25110;-76
2023/02/15 03:32:41;;;;;;;34.70;14.75;;;-1.00;99.90;;;;;;5077228;28;25146;-76
2023/02/15 03:35:09;;;;;;;34.88;14.07;;;-0.90;99.90;;;;;;5089984;28;25072;-76
2023/02/15 03:37:58;;;;;;;39.05;15.20;;;-0.80;99.90;;;;;;5079443;28;25071;-75
2023/02/15 03:43:30;;;;;;;38.55;15.50;;;-0.70;99.90;;;;;;5097626;28;25068;-76
2023/02/15 03:46:08;;;;;;;39.10;15.65;;;-0.60;99.90;;;;;;5097569;28;25068;-76
2023/02/15 03:48:58;;;;;;;43.25;16.70;;;-0.60;99.90;;;;;;5079429;28;25077;-76
2023/02/15 03:51:33;;;;;;;40.55;15.68;;;-0.50;99.90;;;;;;5079139;28;25049;-75
2023/02/15 03:54:07;;;;;;;37.80;15.85;;;-0.50;99.90;;;;;;5097457;28;25084;-76
2023/02/15 03:56:38;;;;;;;41.33;16.45;;;-0.40;99.90;;;;;;5079115;28;25078;-76
2023/02/15 04:02:23;;;;;;;33.13;14.10;;;-0.40;99.90;;;;;;5097052;28;25081;-76
2023/02/15 04:04:50;;;;;;;42.20;15.32;;;-0.30;99.90;;;;;;5097229;28;25065;-76
2023/02/15 04:07:17;;;;;;;34.58;15.40;;;-0.30;99.90;;;;;;5097121;28;25114;-76
2023/02/15 04:12:31;;;;;;;59.92;14.43;;;-0.20;99.90;;;;;;5097121;28;25067;-76
2023/02/15 04:17:44;;;;;;;33.95;13.50;;;-0.20;99.90;;;;;;5096849;28;25061;-76
2023/02/15 04:25:42;;;;;;;33.13;14.02;;;-0.20;99.90;;;;;;5096869;28;25114;-76
2023/02/15 04:28:09;;;;;;;41.17;15.05;;;-0.20;99.90;;;;;;5096874;28;25090;-76
2023/02/15 04:30:37;;;;;;;34.30;15.10;;;-0.20;99.90;;;;;;5096858;28;25106;-76
2023/02/15 04:33:04;;;;;;;36.75;14.02;;;-0.20;99.90;;;;;;5095222;28;25062;-76
2023/02/15 04:35:33;;;;;;;37.90;13.45;;;-0.20;99.90;;;;;;5096607;28;25100;-76
2023/02/15 04:38:00;;;;;;;38.85;15.50;;;-0.20;99.90;;;;;;5095860;28;25091;-76
2023/02/15 04:40:28;;;;;;;42.35;14.25;;;-0.20;99.90;;;;;;5096664;28;25055;-76
2023/02/15 04:42:55;;;;;;;56.05;14.52;;;-0.20;99.90;;;;;;5095037;28;25104;-76
2023/02/15 04:45:23;;;;;;;36.90;12.70;;;-0.20;99.90;;;;;;5078710;28;25056;-76
2023/02/15 04:47:50;;;;;;;29.00;12.18;;;-0.20;99.90;;;;;;5078727;28;25073;-75
2023/02/15 04:50:17;;;;;;;29.98;13.35;;;-0.20;99.90;;;;;;5096418;28;25065;-76
2023/02/15 04:52:44;;;;;;;28.02;12.38;;;-0.20;99.90;;;;;;5078376;28;25071;-76
2023/02/15 04:55:11;;;;;;;30.55;13.30;;;-0.20;99.90;;;;;;5078537;28;25083;-76
2023/02/15 04:57:39;;;;;;;31.42;12.70;;;-0.20;99.90;;;;;;5078344;28;25063;-76
2023/02/15 05:00:08;;;;;;;31.70;12.38;;;-0.20;99.90;;;;;;5078347;28;25080;-76
2023/02/15 05:02:36;;;;;;;27.65;11.57;;;-0.20;99.90;;;;;;5096247;28;25109;-76
2023/02/15 05:05:03;;;;;;;32.88;13.45;;;-0.20;99.90;;;;;;5096387;28;25063;-76
2023/02/15 05:07:30;;;;;;;27.25;13.30;;;-0.20;99.90;;;;;;5096485;28;25071;-76
2023/02/15 05:09:58;;;;;;;28.67;12.70;;;-0.20;99.90;;;;;;5096249;28;25123;-76
2023/02/15 05:12:26;;;;;;;27.48;12.90;;;-0.20;99.90;;;;;;5096136;28;25112;-76
2023/02/15 05:14:53;;;;;;;25.65;12.13;;;-0.20;99.90;;;;;;5096827;28;25051;-76
2023/02/15 05:17:21;;;;;;;24.40;11.13;;;-0.10;99.90;;;;;;5078147;28;25055;-76
2023/02/15 05:19:48;;;;;;;31.25;12.50;;;-0.20;99.90;;;;;;5078150;28;25131;-76
2023/02/15 05:22:15;;;;;;;29.75;13.27;;;-0.10;99.90;;;;;;5096633;28;25056;-76
2023/02/15 05:30:14;;;;;;;28.77;11.15;;;-0.10;99.90;;;;;;5096339;28;24067;-76
2023/02/15 05:32:43;;;;;;;24.85;10.40;;;-0.10;99.90;;;;;;5081791;28;25102;-76
2023/02/15 05:35:15;;;;;;;27.33;12.55;;;-0.10;99.90;;;;;;5078242;28;25064;-76
2023/02/15 05:37:42;;;;;;;29.23;12.75;;;-0.10;99.90;;;;;;5080032;28;25062;-76
2023/02/15 05:40:10;;;;;;;28.00;12.00;;;-0.10;99.90;;;;;;5079780;28;25058;-76
2023/02/15 05:42:37;;;;;;;24.85;11.05;;;-0.10;99.90;;;;;;5079353;28;25060;-76
2023/02/15 05:45:05;;;;;;;24.40;12.15;;;-0.10;99.90;;;;;;5079375;28;25073;-76
2023/02/15 05:47:32;;;;;;;36.17;10.93;;;-0.10;99.90;;;;;;5079317;28;25118;-76
2023/02/15 05:50:00;;;;;;;26.17;11.57;;;-0.10;99.90;;;;;;5078315;28;25098;-76
2023/02/15 05:52:27;;;;;;;28.90;11.90;;;-0.10;99.90;;;;;;5079184;28;25068;-76
2023/02/15 05:54:54;;;;;;;26.90;11.02;;;-0.20;99.90;;;;;;5079174;28;25088;-76
2023/02/15 05:57:21;;;;;;;26.90;11.15;;;-0.20;99.90;;;;;;5077997;28;25097;-76
2023/02/15 05:59:49;;;;;;;27.02;11.90;;;-0.20;99.90;;;;;;5079464;28;25051;-76
2023/02/15 06:02:16;;;;;;;20.88;10.43;;;-0.20;99.90;;;;;;5076073;28;25090;-76
2023/02/15 06:04:44;;;;;;;26.90;11.20;;;-0.20;99.90;;;;;;5077685;28;25110;-76
2023/02/15 06:07:11;;;;;;;22.02;11.15;;;-0.20;99.90;;;;;;5079453;28;25045;-76
2023/02/15 06:09:39;;;;;;;23.75;10.38;;;-0.20;99.90;;;;;;5079336;28;25058;-76
2023/02/15 06:12:06;;;;;;;23.85;10.38;;;-0.20;99.90;;;;;;5077757;28;25059;-76
2023/02/15 06:14:33;;;;;;;25.23;11.45;;;-0.20;99.90;;;;;;5079060;28;25134;-76
2023/02/15 06:17:01;;;;;;;22.48;10.80;;;-0.20;99.90;;;;;;5079005;28;25108;-76
2023/02/15 06:19:28;;;;;;;22.42;11.18;;;-0.30;99.90;;;;;;5078702;28;25056;-76
2023/02/15 06:21:56;;;;;;;24.13;10.80;;;-0.30;99.90;;;;;;5077572;28;25103;-76
2023/02/15 06:24:24;;;;;;;26.10;10.48;;;-0.20;99.90;;;;;;5079201;28;25053;-76
2023/02/15 06:26:51;;;;;;;21.83;10.70;;;-0.30;99.90;;;;;;5078810;28;25099;-76
2023/02/15 06:29:18;;;;;;;22.95;11.27;;;-0.20;99.90;;;;;;5077640;28;25150;-76
2023/02/15 06:31:46;;;;;;;26.90;11.68;;;-0.20;99.90;;;;;;5078403;28;25131;-76
2023/02/15 06:34:13;;;;;;;23.10;11.82;;;-0.20;99.90;;;;;;5083107;28;25065;-76
2023/02/15 06:36:42;;;;;;;25.80;11.85;;;-0.20;99.90;;;;;;5098471;28;25075;-74
2023/02/15 06:39:10;;;;;;;28.70;10.93;;;-0.20;99.90;;;;;;5099306;28;25119;-74
2023/02/15 06:41:37;;;;;;;26.10;11.23;;;-0.20;99.90;;;;;;5098241;28;25067;-74
2023/02/15 06:44:04;;;;;;;23.48;10.43;;;-0.20;99.90;;;;;;5098735;28;25111;-74
2023/02/15 06:46:32;;;;;;;25.10;10.82;;;-0.20;99.90;;;;;;5098402;28;25102;-74
2023/02/15 06:48:59;;;;;;;23.13;10.50;;;-0.20;99.90;;;;;;5098937;28;25076;-74
2023/02/15 06:51:26;;;;;;;22.85;9.45;;;-0.20;99.90;;;;;;5098874;28;25067;-74
2023/02/15 06:53:54;;;;;;;23.88;9.82;;;-0.30;99.90;;;;;;5098911;28;25071;-74
2023/02/15 06:56:21;;;;;;;25.45;10.93;;;-0.30;99.90;;;;;;5098237;28;25100;-73
2023/02/15 06:58:49;;;;;;;23.65;9.43;;;-0.20;99.90;;;;;;5097889;28;25111;-73
2023/02/15 07:01:17;;;;;;;28.20;11.73;;;-0.20;99.90;;;;;;5098076;28;24870;-72
2023/02/15 07:03:45;;;;;;;20.23;9.52;;;-0.20;99.90;;;;;;5080326;28;25071;-73
2023/02/15 07:06:12;;;;;;;29.45;11.13;;;-0.20;99.90;;;;;;5078308;28;25067;-75
2023/02/15 07:08:41;;;;;;;22.65;10.63;;;-0.20;99.90;;;;;;5080005;28;25075;-74
2023/02/15 07:13:54;;;;;;;23.30;9.82;;;-0.20;99.90;;;;;;5098086;28;25078;-74
2023/02/15 07:16:22;;;;;;;24.05;10.18;;;-0.20;99.90;;;;;;5097840;28;25122;-74
2023/02/15 07:18:50;;;;;;;22.08;9.38;;;-0.20;99.90;;;;;;5079878;28;25069;-74
2023/02/15 07:21:17;;;;;;;21.65;9.85;;;-0.20;99.90;;;;;;5079692;28;25047;-75
2023/02/15 07:23:45;;;;;;;24.75;10.35;;;-0.20;99.90;;;;;;5079901;28;25084;-74
2023/02/15 07:26:13;;;;;;;21.52;9.80;;;-0.20;99.90;;;;;;5097630;28;25128;-74
2023/02/15 07:28:40;;;;;;;20.15;9.60;;;-0.10;99.90;;;;;;5079973;28;25124;-74
2023/02/15 07:31:08;;;;;;;23.70;10.82;;;-0.10;99.90;;;;;;5097528;28;25069;-75
2023/02/15 07:33:38;;;;;;;21.02;8.90;;;0.00;99.90;;;;;;5079618;28;25071;-75
2023/02/15 07:36:07;;;;;;;23.88;10.68;;;0.00;99.90;;;;;;5096615;28;25076;-74
2023/02/15 07:38:36;;;;;;;21.20;9.23;;;0.10;99.90;;;;;;5096062;28;25070;-74
2023/02/15 07:41:06;;;;;;;20.80;9.90;;;0.20;99.90;;;;;;5096528;28;25071;-74
2023/02/15 07:43:35;;;;;;;18.25;9.13;;;0.30;99.90;;;;;;5079252;28;25101;-75
2023/02/15 07:46:05;;;;;;;21.38;9.93;;;0.30;99.90;;;;;;5097206;28;25097;-75
2023/02/15 07:48:33;;;;;;;21.08;9.82;;;0.40;99.90;;;;;;5097454;28;25065;-74
2023/02/15 07:51:01;;;;;;;20.67;11.85;;;0.40;99.90;;;;;;5097161;28;25102;-75
2023/02/15 07:53:30;;;;;;;59.55;22.95;;;0.50;99.90;;;;;;5096888;28;25055;-75
2023/02/15 07:56:02;;;;;;;22.08;11.43;;;0.50;99.90;;;;;;5079391;28;25129;-75
2023/02/15 08:01:16;;;;;;;24.42;10.40;;;0.60;99.90;;;;;;5097217;28;25108;-74
2023/02/15 08:03:43;;;;;;;30.30;12.98;;;0.70;99.90;;;;;;5097005;28;25117;-75
2023/02/15 08:06:12;;;;;;;24.90;11.20;;;0.70;99.90;;;;;;5097321;28;25073;-75
2023/02/15 08:08:41;;;;;;;22.05;10.20;;;0.70;99.90;;;;;;5097476;28;25065;-75
2023/02/15 08:11:26;;;;;;;19.83;9.30;;;0.70;99.90;;;;;;5097393;28;25060;-74
2023/02/15 08:14:06;;;;;;;19.42;8.73;;;0.70;99.90;;;;;;5078992;28;25106;-75
2023/02/15 08:16:38;;;;;;;19.27;10.10;;;0.80;99.90;;;;;;5078809;28;25127;-75
2023/02/15 08:19:29;;;;;;;19.67;8.73;;;0.70;99.90;;;;;;5097230;28;25140;-75
2023/02/15 08:22:03;;;;;;;19.45;10.30;;;0.70;99.90;;;;;;5096896;28;25066;-74
2023/02/15 08:24:33;;;;;;;19.17;8.98;;;0.70;99.90;;;;;;5096800;28;25109;-74
2023/02/15 08:27:05;;;;;;;17.33;8.63;;;0.70;99.90;;;;;;5096605;28;25058;-74
2023/02/15 08:29:33;;;;;;;20.90;8.70;;;0.70;99.90;;;;;;5078572;28;25047;-73
2023/02/15 08:32:04;;;;;;;19.27;9.52;;;0.80;99.90;;;;;;5078591;28;25075;-74
2023/02/15 08:34:37;;;;;;;19.38;8.55;;;0.70;99.90;;;;;;5075193;28;25111;-74
2023/02/15 08:37:05;;;;;;;20.65;9.98;;;0.80;99.90;;;;;;5076818;28;25094;-74
2023/02/15 08:39:33;;;;;;;14.60;7.20;;;0.80;99.90;;;;;;5076160;28;25163;-74
2023/02/15 08:42:02;;;;;;;19.80;9.65;;;0.90;99.90;;;;;;5076273;28;25072;-74
2023/02/15 08:44:29;;;;;;;17.95;8.50;;;0.90;99.90;;;;;;5075311;28;25059;-75
2023/02/15 08:47:03;;;;;;;20.20;8.80;;;0.90;99.90;;;;;;5075175;28;25096;-75
2023/02/15 08:49:32;;;;;;;17.35;7.97;;;1.00;99.90;;;;;;5076141;28;25094;-75
2023/02/15 08:51:59;;;;;;;16.88;8.60;;;1.00;99.90;;;;;;5076122;28;25071;-75
2023/02/15 08:54:27;;;;;;;19.33;9.35;;;1.10;99.90;;;;;;5076371;28;25099;-74
2023/02/15 08:56:55;;;;;;;19.35;8.98;;;1.10;99.90;;;;;;5076100;28;25114;-74
2023/02/15 08:59:25;;;;;;;17.65;8.23;;;1.10;99.90;;;;;;5076017;28;25067;-73
2023/02/15 09:01:53;;;;;;;15.07;7.65;;;1.20;99.90;;;;;;5075973;28;25056;-74
2023/02/15 09:04:22;;;;;;;20.33;9.05;;;1.30;99.90;;;;;;5075623;28;25058;-74
2023/02/15 09:06:50;;;;;;;17.65;8.57;;;1.40;99.90;;;;;;5080610;28;25106;-75
2023/02/15 09:09:18;;;;;;;18.88;9.32;;;1.50;99.90;;;;;;5080000;28;25053;-76
2023/02/15 09:11:48;;;;;;;19.92;8.27;;;1.50;99.90;;;;;;5078915;28;25073;-75
2023/02/15 09:14:21;;;;;;;22.42;9.18;;;1.50;99.90;;;;;;5079918;28;25110;-74
2023/02/15 09:16:50;;;;;;;17.52;8.00;;;1.60;99.90;;;;;;5080093;28;25124;-74
2023/02/15 09:19:19;;;;;;;17.52;8.32;;;1.60;99.90;;;;;;5081290;28;25060;-75
2023/02/15 09:21:47;;;;;;;18.23;7.93;;;1.60;99.90;;;;;;5081203;28;25132;-75
2023/02/15 09:24:16;;;;;;;15.13;7.65;;;1.70;99.90;;;;;;5081393;28;25074;-75
2023/02/15 09:26:48;;;;;;;17.73;8.88;;;1.70;99.90;;;;;;5081219;28;25079;-76
2023/02/15 09:29:17;;;;;;;15.45;7.90;;;1.80;99.90;;;;;;5083783;28;25114;-76
2023/02/15 09:31:48;;;;;;;16.23;8.18;;;1.90;99.90;;;;;;5081526;28;25071;-74
2023/02/15 09:34:17;;;;;;;16.45;7.18;;;1.90;99.90;;;;;;5084268;28;25126;-74
2023/02/15 09:36:45;;;;;;;15.63;7.97;;;2.00;99.90;;;;;;5099818;28;25125;-75
2023/02/15 09:39:15;;;;;;;16.38;8.70;;;2.00;99.90;;;;;;5099661;28;25070;-75
2023/02/15 09:41:57;;;;;;;16.10;7.40;;;2.10;99.90;;;;;;5081724;28;25106;-74
2023/02/15 09:44:57;;;;;;;14.68;7.25;;;2.10;99.90;;;;;;5081613;28;25071;-74
2023/02/15 09:48:00;;;;;;;14.85;7.40;;;2.10;99.90;;;;;;5086290;28;25114;-74
2023/02/15 09:50:55;;;;;;;14.32;7.45;;;2.20;99.90;;;;;;5099658;28;25061;-75
2023/02/15 09:53:38;;;;;;;14.30;6.63;;;2.30;99.90;;;;;;5099500;28;25082;-75
2023/02/15 09:56:15;;;;;;;13.73;7.45;;;2.30;99.90;;;;;;5099706;28;25145;-74
2023/02/15 09:58:51;;;;;;;15.18;7.53;;;2.40;99.90;;;;;;5099824;28;25122;-75
2023/02/15 10:01:28;;;;;;;15.63;7.32;;;2.40;99.90;;;;;;5099860;28;25067;-74
2023/02/15 10:04:30;;;;;;;16.00;7.50;;;2.40;99.90;;;;;;5100472;28;25061;-75
2023/02/15 10:07:34;;;;;;;14.25;7.40;;;2.50;99.90;;;;;;5099541;28;25072;-74
2023/02/15 10:10:15;;;;;;;14.65;6.90;;;2.60;99.90;;;;;;5100317;28;25065;-75
2023/02/15 10:13:01;;;;;;;14.20;6.85;;;2.60;99.90;;;;;;5099352;28;25108;-75
2023/02/15 10:15:51;;;;;;;16.45;8.18;;;2.70;99.90;;;;;;5099333;28;25058;-74
2023/02/15 10:18:41;;;;;;;14.13;8.00;;;2.80;99.90;;;;;;5081001;28;25003;-74
2023/02/15 10:21:31;;;;;;;12.90;7.38;;;3.00;99.90;;;;;;5080966;28;25074;-75
2023/02/15 10:24:12;;;;;;;16.60;7.97;;;3.10;99.90;;;;;;5099206;28;25130;-75
2023/02/15 10:26:47;;;;;;;16.55;8.52;;;3.20;99.90;;;;;;5099384;28;25055;-75
2023/02/15 10:29:37;;;;;;;13.30;6.60;;;3.30;99.90;;;;;;5098812;28;25060;-75
2023/02/15 10:32:23;;;;;;;13.27;6.22;;;3.40;99.90;;;;;;5100170;28;25068;-75
2023/02/15 10:34:57;;;;;;;11.68;6.35;;;3.40;99.90;;;;;;5098631;28;25076;-75
2023/02/15 10:37:42;;;;;;;14.93;6.65;;;3.60;99.90;;;;;;5098890;28;25082;-73
2023/02/15 10:40:43;;;;;;;15.23;6.85;;;3.60;99.90;;;;;;5080605;28;25063;-74
2023/02/15 10:43:22;;;;;;;15.02;7.10;;;3.60;99.90;;;;;;5098959;28;25123;-74
2023/02/15 10:46:00;;;;;;;13.60;7.38;;;3.50;99.90;;;;;;5080481;28;25100;-75
2023/02/15 10:48:52;;;;;;;13.02;7.03;;;3.40;99.90;;;;;;5080444;28;25074;-72
2023/02/15 10:51:42;;;;;;;13.55;7.05;;;3.30;99.90;;;;;;5098865;28;25124;-73
2023/02/15 10:54:33;;;;;;;15.40;6.97;;;3.20;99.90;;;;;;5080582;28;25140;-73
2023/02/15 10:57:04;;;;;;;16.20;7.45;;;3.10;99.90;;;;;;5098520;28;25130;-73
2023/02/15 10:59:59;;;;;;;14.75;7.10;;;3.10;99.90;;;;;;5098414;28;25053;-73
2023/02/15 11:02:51;;;;;;;15.15;8.05;;;3.10;99.90;;;;;;5080178;28;25057;-73
2023/02/15 11:05:38;;;;;;;15.52;7.15;;;3.00;99.90;;;;;;5098498;28;25072;-76
2023/02/15 11:08:10;;;;;;;12.68;7.25;;;3.00;99.90;;;;;;5098030;28;25114;-74
2023/02/15 11:10:55;;;;;;;15.00;7.93;;;3.00;99.90;;;;;;5098295;28;25049;-74
2023/02/15 11:13:28;;;;;;;15.98;7.35;;;3.10;99.90;;;;;;5080157;28;25051;-74
2023/02/15 11:16:16;;;;;;;16.02;8.05;;;3.10;99.90;;;;;;5098149;28;25108;-77
2023/02/15 11:18:56;;;;;;;15.13;6.57;;;3.20;99.90;;;;;;5098196;28;25083;-74
2023/02/15 11:21:40;;;;;;;16.20;7.57;;;3.30;99.90;;;;;;5097662;28;25103;-74
2023/02/15 11:24:18;;;;;;;16.25;8.13;;;3.40;99.90;;;;;;5097972;28;25086;-74
2023/02/15 11:26:48;;;;;;;16.27;7.82;;;3.40;99.90;;;;;;5097669;28;25062;-75
2023/02/15 11:29:28;;;;;;;13.60;7.05;;;3.40;99.90;;;;;;5080428;28;25133;-74
2023/02/15 11:32:02;;;;;;;16.83;7.47;;;3.40;99.90;;;;;;5079653;28;25157;-74
2023/02/15 11:34:46;;;;;;;17.20;7.97;;;3.50;99.90;;;;;;5098135;28;25058;-75
2023/02/15 11:37:20;;;;;;;14.15;6.90;;;3.60;99.90;;;;;;5079542;28;25090;-76
2023/02/15 11:39:54;;;;;;;14.55;7.18;;;3.60;99.90;;;;;;5079456;28;25106;-75
2023/02/15 11:42:25;;;;;;;13.68;7.10;;;3.70;99.90;;;;;;5079529;28;25104;-74
2023/02/15 11:45:03;;;;;;;15.32;6.75;;;3.80;99.90;;;;;;5097521;28;25055;-74
2023/02/15 11:47:30;;;;;;;15.88;7.53;;;3.80;99.90;;;;;;5097549;28;25105;-74
2023/02/15 11:49:58;;;;;;;16.65;7.95;;;3.90;99.90;;;;;;5079295;28;25077;-74
2023/02/15 11:52:26;;;;;;;14.13;6.95;;;4.00;99.90;;;;;;5097170;28;25086;-73
2023/02/15 11:54:53;;;;;;;14.45;6.55;;;4.00;99.90;;;;;;5079283;28;25060;-75
2023/02/15 11:57:24;;;;;;;14.70;7.00;;;4.00;99.90;;;;;;5079170;28;25109;-76
2023/02/15 12:00:11;;;;;;;16.67;7.20;;;4.10;99.90;;;;;;5097289;28;25064;-75
2023/02/15 12:02:42;;;;;;;16.80;8.00;;;4.10;99.90;;;;;;5079023;28;25063;-75
2023/02/15 12:05:24;;;;;;;16.20;7.47;;;4.20;99.90;;;;;;5097170;28;25121;-74
2023/02/15 12:08:21;;;;;;;15.88;8.43;;;4.30;99.90;;;;;;5079023;28;25105;-74
2023/02/15 12:10:58;;;;;;;16.23;7.70;;;4.30;99.90;;;;;;5095518;28;25071;-74
2023/02/15 12:13:25;;;;;;;13.80;7.07;;;4.30;99.90;;;;;;5079099;28;25066;-74
2023/02/15 12:15:55;;;;;;;18.55;8.05;;;4.40;99.90;;;;;;5096828;28;25052;-76
2023/02/15 12:18:37;;;;;;;13.75;7.38;;;4.40;99.90;;;;;;5096792;28;25139;-76
2023/02/15 12:21:11;;;;;;;16.58;7.75;;;4.50;99.90;;;;;;5078705;28;25052;-76
2023/02/15 12:23:52;;;;;;;15.00;7.68;;;4.60;99.90;;;;;;5097425;28;25103;-76
2023/02/15 12:26:35;;;;;;;13.75;6.70;;;4.60;99.90;;;;;;5078782;28;25062;-76
2023/02/15 12:29:13;;;;;;;13.90;6.57;;;4.70;99.90;;;;;;5096930;28;25113;-76
2023/02/15 12:31:48;;;;;;;15.25;7.50;;;4.80;99.90;;;;;;5096634;28;25100;-76
2023/02/15 12:34:43;;;;;;;13.98;6.82;;;4.90;99.90;;;;;;5077307;28;25064;-76
2023/02/15 12:37:24;;;;;;;15.27;6.88;;;5.00;99.90;;;;;;5096496;28;25095;-77
2023/02/15 12:40:00;;;;;;;17.73;7.40;;;5.10;99.90;;;;;;5096254;28;25067;-77
2023/02/15 12:42:41;;;;;;;13.45;6.82;;;5.10;99.90;;;;;;5096492;28;25062;-75
2023/02/15 12:45:25;;;;;;;13.23;6.65;;;5.20;99.90;;;;;;5096806;28;25105;-76
2023/02/15 12:48:13;;;;;;;17.23;7.55;;;5.30;99.90;;;;;;5078450;28;25063;-76
2023/02/15 12:50:42;;;;;;;12.95;6.47;;;5.40;99.90;;;;;;5079834;28;25056;-76
2023/02/15 12:53:32;;;;;;;13.15;6.45;;;5.50;99.90;;;;;;5096686;28;25073;-76
2023/02/15 12:56:03;;;;;;;14.30;7.30;;;5.60;99.90;;;;;;5096407;28;25137;-76
2023/02/15 12:58:34;;;;;;;12.43;6.88;;;5.70;99.90;;;;;;5096539;28;20027;-76
2023/02/15 13:01:24;;;;;;;14.85;6.97;;;5.90;99.90;;;;;;5078315;28;25100;-76
2023/02/15 13:04:01;;;;;;;11.38;5.90;;;6.00;99.90;;;;;;5096333;28;25103;-76
2023/02/15 13:06:31;;;;;;;15.68;6.97;;;6.10;99.90;;;;;;5078707;28;20012;-76
2023/02/15 13:09:18;;;;;;;13.07;6.82;;;6.20;99.90;;;;;;5096932;28;25103;-76
2023/02/15 13:11:47;;;;;;;11.75;5.95;;;6.30;99.90;;;;;;5078287;28;25102;-76
2023/02/15 13:14:32;;;;;;;11.25;6.18;;;6.40;99.90;;;;;;5096271;28;25061;-76
2023/02/15 13:17:03;;;;;;;12.93;6.45;;;6.50;99.90;;;;;;5096734;28;25159;-76
2023/02/15 13:19:49;;;;;;;13.82;6.75;;;6.60;99.90;;;;;;5078421;28;20084;-76
2023/02/15 13:22:39;;;;;;;11.18;6.07;;;6.70;99.90;;;;;;5096132;28;25058;-76
2023/02/15 13:25:15;;;;;;;11.43;6.10;;;6.80;99.90;;;;;;5096396;28;20483;-76
2023/02/15 13:27:46;;;;;;;15.60;6.97;;;7.00;99.90;;;;;;5096090;28;25133;-76
2023/02/15 13:30:45;;;;;;;10.88;6.13;;;7.00;99.90;;;;;;5078122;28;25108;-76
2023/02/15 13:33:26;;;;;;;12.45;6.57;;;7.20;99.90;;;;;;5096200;28;25088;-76
2023/02/15 13:35:57;;;;;;;11.25;6.18;;;7.20;99.90;;;;;;5075765;28;25124;-76
2023/02/15 13:38:59;;;;;;;12.10;6.55;;;7.30;99.90;;;;;;5074943;28;20028;-76